createdAt,value
2018-05-24T00:01:23.258Z,99430.99
2018-05-24T00:03:56.900Z,99426.42
2018-05-24T00:06:30.617Z,99425.56
2018-05-24T00:09:05.117Z,99419.91
2018-05-24T00:11:38.686Z,99428.27
2018-05-24T00:14:12.345Z,99420.98
2018-05-24T00:16:45.954Z,99417.94
2018-05-24T00:19:19.721Z,99422.30
2018-05-24T00:21:53.622Z,99422.19
2018-05-24T00:24:27.360Z,99419.73
2018-05-24T00:27:00.977Z,99416.47
2018-05-24T00:29:34.778Z,99417.00
2018-05-24T00:32:08.381Z,99421.64
2018-05-24T00:34:42.057Z,99419.23
2018-05-24T00:37:15.731Z,99415.84
2018-05-24T00:39:49.418Z,99406.74
2018-05-24T00:42:23.248Z,99411.32
2018-05-24T00:44:57.005Z,99398.98
2018-05-24T00:47:30.570Z,99404.56
2018-05-24T00:50:04.217Z,99399.47
2018-05-24T00:52:37.941Z,99396.03
2018-05-24T00:55:23.369Z,99391.00
2018-05-24T00:57:57.052Z,99393.00
2018-05-24T01:00:30.608Z,99386.19
2018-05-24T01:03:04.374Z,99382.23
2018-05-24T01:05:37.957Z,99383.78
2018-05-24T01:08:11.732Z,99375.81
2018-05-24T01:10:45.460Z,99381.56
2018-05-24T01:13:19.208Z,99382.19
2018-05-24T01:15:52.956Z,99378.30
2018-05-24T01:18:26.550Z,99380.53
2018-05-24T01:21:00.214Z,99378.86
2018-05-24T01:23:34.035Z,99376.16
2018-05-24T01:26:07.721Z,99379.66
2018-05-24T01:28:41.596Z,99374.52
2018-05-24T01:31:15.237Z,99373.03
2018-05-24T01:33:48.894Z,99372.99
2018-05-24T01:36:22.667Z,99369.27
2018-05-24T01:38:56.247Z,99369.36
2018-05-24T01:41:29.943Z,99363.06
2018-05-24T01:44:03.694Z,99368.27
2018-05-24T01:46:37.479Z,99367.98
2018-05-24T01:49:11.277Z,99361.46
2018-05-24T01:51:44.857Z,99362.84
2018-05-24T01:54:18.491Z,99361.58
2018-05-24T01:56:52.241Z,99366.30
2018-05-24T01:59:25.963Z,99362.53
2018-05-24T02:01:59.521Z,99354.64
2018-05-24T02:04:33.167Z,99364.88
2018-05-24T02:07:06.759Z,99362.98
2018-05-24T02:09:40.560Z,99367.69
2018-05-24T02:12:14.304Z,99364.66
2018-05-24T02:14:48.037Z,99357.16
2018-05-24T02:17:21.772Z,99350.69
2018-05-24T02:19:55.349Z,99353.89
2018-05-24T02:22:29.012Z,99352.80
2018-05-24T02:25:02.638Z,99353.03
2018-05-24T02:27:36.228Z,99355.89
2018-05-24T02:30:09.945Z,99352.09
2018-05-24T02:32:43.639Z,99351.55
2018-05-24T02:35:17.217Z,99352.58
2018-05-24T02:37:50.931Z,99345.77
2018-05-24T02:40:24.632Z,99349.72
2018-05-24T02:42:58.849Z,99345.60
2018-05-24T02:45:32.533Z,99344.44
2018-05-24T02:48:06.280Z,99349.12
2018-05-24T02:50:39.905Z,99348.27
2018-05-24T02:53:13.693Z,99342.49
2018-05-24T02:55:47.384Z,99348.67
2018-05-24T02:58:21.235Z,99344.16
2018-05-24T03:00:54.969Z,99354.28
2018-05-24T03:03:28.768Z,99343.98
2018-05-24T03:06:02.557Z,99344.33
2018-05-24T03:08:36.420Z,99340.09
2018-05-24T03:11:10.113Z,99337.69
2018-05-24T03:13:43.841Z,99337.06
2018-05-24T03:16:17.470Z,99336.16
2018-05-24T03:18:51.299Z,99341.02
2018-05-24T03:21:24.987Z,99344.80
2018-05-24T03:23:58.695Z,99340.73
2018-05-24T03:26:32.404Z,99344.16
2018-05-24T03:29:06.061Z,99339.34
2018-05-24T03:31:39.875Z,99343.86
2018-05-24T03:34:13.521Z,99345.75
2018-05-24T03:36:47.340Z,99355.45
2018-05-24T03:39:21.080Z,99347.86
2018-05-24T03:41:54.818Z,99353.75
2018-05-24T03:44:28.523Z,99352.36
2018-05-24T03:47:02.329Z,99352.07
2018-05-24T03:49:36.018Z,99349.66
2018-05-24T03:52:09.676Z,99350.72
2018-05-24T03:54:43.413Z,99352.41
2018-05-24T03:57:16.985Z,99344.58
2018-05-24T04:00:11.514Z,99342.53
2018-05-24T04:02:57.143Z,99346.98
2018-05-24T04:05:30.850Z,99348.82
2018-05-24T04:08:04.409Z,99356.41
2018-05-24T04:10:37.949Z,99352.41
2018-05-24T04:13:11.660Z,99357.05
2018-05-24T04:15:45.291Z,99360.41
2018-05-24T04:18:18.955Z,99364.44
2018-05-24T04:20:52.649Z,99363.89
2018-05-24T04:23:26.335Z,99352.78
2018-05-24T04:26:00.057Z,99352.94
2018-05-24T04:28:33.751Z,99350.88
2018-05-24T04:31:07.443Z,99349.92
2018-05-24T04:33:41.191Z,99351.40
2018-05-24T04:36:14.946Z,99356.17
2018-05-24T04:38:48.649Z,99354.19
2018-05-24T04:41:22.238Z,99359.17
2018-05-24T04:43:55.818Z,99361.51
2018-05-24T04:46:29.457Z,99353.61
2018-05-24T04:49:03.049Z,99354.49
2018-05-24T04:51:36.768Z,99357.00
2018-05-24T04:54:10.449Z,99353.84
2018-05-24T04:56:44.069Z,99349.82
2018-05-24T04:59:17.675Z,99356.42
2018-05-24T05:01:51.421Z,99355.77
2018-05-24T05:04:25.079Z,99346.77
2018-05-24T05:07:22.574Z,99356.74
2018-05-24T05:09:56.161Z,99365.70
2018-05-24T05:12:29.945Z,99379.55
2018-05-24T05:15:03.653Z,99374.33
2018-05-24T05:17:37.510Z,99370.85
2018-05-24T05:20:11.024Z,99379.95
2018-05-24T05:22:44.765Z,99371.84
2018-05-24T05:25:18.477Z,99369.34
2018-05-24T05:27:52.052Z,99364.92
2018-05-24T05:30:25.785Z,99357.05
2018-05-24T05:32:59.580Z,99352.39
2018-05-24T05:35:33.162Z,99352.30
2018-05-24T05:38:06.858Z,99357.11
2018-05-24T05:40:40.417Z,99359.91
2018-05-24T05:43:14.130Z,99354.74
2018-05-24T05:45:47.912Z,99350.78
2018-05-24T05:48:21.584Z,99354.41
2018-05-24T05:50:55.261Z,99352.01
2018-05-24T05:53:29.091Z,99354.11
2018-05-24T05:56:02.647Z,99348.47
2018-05-24T05:58:36.358Z,99346.77
2018-05-24T06:01:10.002Z,99346.77
2018-05-24T06:03:43.593Z,99344.45
2018-05-24T06:06:17.357Z,99347.44
2018-05-24T06:08:51.115Z,99341.19
2018-05-24T06:11:24.713Z,99340.52
2018-05-24T06:13:58.578Z,99330.17
2018-05-24T06:16:45.168Z,99333.31
2018-05-24T06:19:18.808Z,99332.64
2018-05-24T06:21:52.545Z,99336.26
2018-05-24T06:24:26.135Z,99339.69
2018-05-24T06:26:59.668Z,99337.61
2018-05-24T06:29:33.352Z,99338.48
2018-05-24T06:32:07.154Z,99330.84
2018-05-24T06:34:40.986Z,99332.95
2018-05-24T06:37:14.803Z,99340.48
2018-05-24T06:39:48.360Z,99341.23
2018-05-24T06:42:21.951Z,99339.94
2018-05-24T06:44:55.686Z,99345.06
2018-05-24T06:47:29.454Z,99350.34
2018-05-24T06:50:03.181Z,99350.23
2018-05-24T06:52:36.909Z,99350.66
2018-05-24T06:55:10.673Z,99356.38
2018-05-24T06:57:44.437Z,99362.91
2018-05-24T07:00:18.134Z,99359.44
2018-05-24T07:02:51.761Z,99362.31
2018-05-24T07:05:25.617Z,99363.82
2018-05-24T07:07:59.333Z,99367.38
2018-05-24T07:10:33.080Z,99373.55
2018-05-24T07:13:06.665Z,99373.63
2018-05-24T07:15:40.559Z,99378.50
2018-05-24T07:18:14.312Z,99378.91
2018-05-24T07:20:48.055Z,99381.78
2018-05-24T07:23:21.641Z,99375.16
2018-05-24T07:25:55.242Z,99373.97
2018-05-24T07:28:28.867Z,99382.27
2018-05-24T07:31:02.556Z,99383.35
2018-05-24T07:33:36.271Z,99377.22
2018-05-24T07:36:09.843Z,99382.95
2018-05-24T07:38:43.606Z,99384.78
2018-05-24T07:41:17.286Z,99364.98
2018-05-24T07:43:50.921Z,99367.31
2018-05-24T07:46:24.676Z,99364.17
2018-05-24T07:48:58.513Z,99370.21
2018-05-24T07:51:32.082Z,99366.54
2018-05-24T07:54:05.759Z,99363.09
2018-05-24T07:56:39.448Z,99365.03
2018-05-24T07:59:13.235Z,99368.74
2018-05-24T08:01:46.927Z,99360.67
2018-05-24T08:04:20.640Z,99367.37
2018-05-24T08:06:54.401Z,99359.70
2018-05-24T08:09:27.934Z,99360.69
2018-05-24T08:12:01.594Z,99355.17
2018-05-24T08:14:35.208Z,99355.11
2018-05-24T08:17:08.882Z,99354.09
2018-05-24T08:19:42.580Z,99351.17
2018-05-24T08:22:16.185Z,99346.28
2018-05-24T08:24:49.953Z,99354.77
2018-05-24T08:27:23.623Z,99351.02
2018-05-24T08:29:57.252Z,99353.93
2018-05-24T08:32:30.973Z,99339.55
2018-05-24T08:35:04.637Z,99338.96
2018-05-24T08:37:38.332Z,99337.84
2018-05-24T08:40:12.037Z,99334.80
2018-05-24T08:42:45.792Z,99341.16
2018-05-24T08:45:19.480Z,99344.25
2018-05-24T08:47:53.054Z,99346.05
2018-05-24T08:50:26.784Z,99343.22
2018-05-24T08:53:00.547Z,99344.95
2018-05-24T08:55:34.412Z,99349.42
2018-05-24T08:58:08.181Z,99349.12
2018-05-24T09:00:41.845Z,99339.73
2018-05-24T09:03:15.512Z,99348.12
2018-05-24T09:05:49.205Z,99346.33
2018-05-24T09:08:23.009Z,99337.46
2018-05-24T09:10:56.789Z,99340.60
2018-05-24T09:13:30.505Z,99345.69
2018-05-24T09:16:04.252Z,99352.84
2018-05-24T09:18:38.115Z,99356.71
2018-05-24T09:21:11.850Z,99349.06
2018-05-24T09:23:45.565Z,99356.02
2018-05-24T09:26:19.389Z,99351.48
2018-05-24T09:28:53.201Z,99357.27
2018-05-24T09:31:26.867Z,99356.66
2018-05-24T09:34:00.496Z,99355.09
2018-05-24T09:36:34.078Z,99350.46
2018-05-24T09:39:07.950Z,99355.45
2018-05-24T09:41:41.691Z,99353.50
2018-05-24T09:44:15.297Z,99357.92
2018-05-24T09:46:48.983Z,99356.61
2018-05-24T09:49:22.581Z,99359.01
2018-05-24T09:51:56.221Z,99349.77
2018-05-24T09:54:29.870Z,99348.78
2018-05-24T09:57:03.463Z,99348.20
2018-05-24T09:59:37.016Z,99344.73
2018-05-24T10:02:10.548Z,99333.95
2018-05-24T10:04:44.440Z,99335.70
2018-05-24T10:07:18.006Z,99331.52
2018-05-24T10:09:51.805Z,99333.92
2018-05-24T10:12:25.484Z,99329.59
2018-05-24T10:14:59.117Z,99340.04
2018-05-24T10:17:32.642Z,99332.13
2018-05-24T10:20:06.147Z,99329.73
2018-05-24T10:22:39.682Z,99327.05
2018-05-24T10:25:13.260Z,99325.10
2018-05-24T10:27:46.992Z,99329.41
2018-05-24T10:30:20.580Z,99323.23
2018-05-24T10:32:54.315Z,99329.94
2018-05-24T10:35:27.904Z,99328.32
2018-05-24T10:38:01.666Z,99330.50
2018-05-24T10:40:35.412Z,99334.27
2018-05-24T10:43:09.158Z,99320.68
2018-05-24T10:45:43.067Z,99328.09
2018-05-24T10:48:16.722Z,99318.80
2018-05-24T10:50:50.261Z,99309.52
2018-05-24T10:53:23.961Z,99303.05
2018-05-24T10:55:57.997Z,99300.91
2018-05-24T10:58:31.532Z,99303.10
2018-05-24T11:01:05.076Z,99302.74
2018-05-24T11:03:38.795Z,99301.19
2018-05-24T11:06:12.581Z,99303.23
2018-05-24T11:08:46.361Z,99304.81
2018-05-24T11:11:20.184Z,99298.41
2018-05-24T11:13:53.732Z,99300.67
2018-05-24T11:16:27.259Z,99297.63
2018-05-24T11:19:00.840Z,99286.63
2018-05-24T11:21:34.523Z,99290.52
2018-05-24T11:24:08.290Z,99293.38
2018-05-24T11:26:42.008Z,99290.69
2018-05-24T11:29:15.612Z,99284.44
2018-05-24T11:31:49.228Z,99279.52
2018-05-24T11:34:22.705Z,99279.85
2018-05-24T11:36:56.482Z,99277.10
2018-05-24T11:39:30.224Z,99273.81
2018-05-24T11:42:03.866Z,99280.59
2018-05-24T11:44:37.435Z,99280.58
2018-05-24T11:47:11.076Z,99280.92
2018-05-24T11:49:44.841Z,99280.06
2018-05-24T11:52:18.487Z,99280.56
2018-05-24T11:54:51.968Z,99282.70
2018-05-24T11:57:25.628Z,99278.84
2018-05-24T11:59:59.295Z,99271.80
2018-05-24T12:02:33.207Z,99269.74
2018-05-24T12:05:06.896Z,99261.56
2018-05-24T12:07:40.425Z,99267.49
2018-05-24T12:10:14.146Z,99261.23
2018-05-24T12:12:47.945Z,99252.95
2018-05-24T12:15:21.546Z,99251.23
2018-05-24T12:17:55.187Z,99253.56
2018-05-24T12:20:28.772Z,99249.70
2018-05-24T12:23:02.564Z,99242.43
2018-05-24T12:25:36.185Z,99239.80
2018-05-24T12:28:09.783Z,99241.52
2018-05-24T12:30:43.537Z,99235.92
2018-05-24T12:33:17.119Z,99223.82
2018-05-24T12:35:50.700Z,99220.50
2018-05-24T12:38:24.366Z,99221.36
2018-05-24T12:40:57.942Z,99219.38
2018-05-24T12:43:31.996Z,99219.78
2018-05-24T12:46:05.691Z,99222.84
2018-05-24T12:48:39.482Z,99214.61
2018-05-24T12:51:13.100Z,99212.03
2018-05-24T12:53:46.656Z,99203.92
2018-05-24T12:56:20.408Z,99196.20
2018-05-24T12:58:54.060Z,99201.15
2018-05-24T13:01:27.663Z,99196.38
2018-05-24T13:04:01.247Z,99196.39
2018-05-24T13:06:35.004Z,99192.23
2018-05-24T13:09:08.509Z,99196.19
2018-05-24T13:11:42.336Z,99184.06
2018-05-24T13:14:16.100Z,99182.48
2018-05-24T13:16:49.744Z,99189.83
2018-05-24T13:19:23.527Z,99186.56
2018-05-24T13:21:57.170Z,99183.39
2018-05-24T13:24:30.975Z,99182.92
2018-05-24T13:27:04.768Z,99186.86
2018-05-24T13:29:38.249Z,99183.15
2018-05-24T13:32:12.020Z,99181.01
2018-05-24T13:34:45.814Z,99177.45
2018-05-24T13:37:19.480Z,99175.09
2018-05-24T13:39:53.135Z,99176.27
2018-05-24T13:42:26.716Z,99186.21
2018-05-24T13:45:00.268Z,99179.89
2018-05-24T13:47:33.920Z,99179.23
2018-05-24T13:50:07.404Z,99177.31
2018-05-24T13:52:41.149Z,99179.20
2018-05-24T13:55:14.718Z,99172.94
2018-05-24T13:57:48.290Z,99170.95
2018-05-24T14:00:21.808Z,99171.96
2018-05-24T14:02:55.334Z,99159.70
2018-05-24T14:05:28.876Z,99165.14
2018-05-24T14:08:02.533Z,99165.33
2018-05-24T14:10:36.044Z,99170.72
2018-05-24T14:13:09.855Z,99177.16
2018-05-24T14:15:43.428Z,99177.28
2018-05-24T14:18:17.044Z,99172.26
2018-05-24T14:20:50.740Z,99162.98
2018-05-24T14:23:24.299Z,99170.11
2018-05-24T14:25:58.123Z,99163.66
2018-05-24T14:28:31.656Z,99166.50
2018-05-24T14:31:05.438Z,99159.20
2018-05-24T14:33:39.068Z,99159.38
2018-05-24T14:36:12.843Z,99155.17
2018-05-24T14:38:46.642Z,99150.36
2018-05-24T14:41:20.447Z,99149.46
2018-05-24T14:43:53.976Z,99144.44
2018-05-24T14:46:31.360Z,99141.11
2018-05-24T14:49:05.007Z,99135.19
2018-05-24T14:51:38.496Z,99133.20
2018-05-24T14:54:12.046Z,99134.55
2018-05-24T14:56:45.742Z,99126.80
2018-05-24T14:59:19.288Z,99133.89
2018-05-24T15:01:53.063Z,99132.06
2018-05-24T15:04:26.731Z,99136.30
2018-05-24T15:07:00.306Z,99128.17
2018-05-24T15:09:33.903Z,99139.45
2018-05-24T15:12:07.500Z,99141.91
2018-05-24T15:14:41.064Z,99141.27
2018-05-24T15:17:14.860Z,99142.39
2018-05-24T15:19:48.468Z,99149.33
2018-05-24T15:22:22.067Z,99146.38
2018-05-24T15:24:55.728Z,99146.63
2018-05-24T15:27:29.301Z,99145.22
2018-05-24T15:30:02.939Z,99148.36
2018-05-24T15:32:36.668Z,99142.34
2018-05-24T15:35:10.191Z,99142.70
2018-05-24T15:37:43.848Z,99140.73
2018-05-24T15:40:17.612Z,99144.86
2018-05-24T15:42:51.108Z,99144.88
2018-05-24T15:45:24.777Z,99136.86
2018-05-24T15:47:58.326Z,99137.67
2018-05-24T15:50:31.918Z,99140.09
2018-05-24T15:53:05.828Z,99132.98
2018-05-24T15:55:39.953Z,99134.43
2018-05-24T15:58:13.604Z,99139.87
2018-05-24T16:00:47.135Z,99137.99
2018-05-24T16:03:20.823Z,99135.17
2018-05-24T16:05:54.590Z,99135.00
2018-05-24T16:08:28.260Z,99134.12
2018-05-24T16:11:01.912Z,99133.66
2018-05-24T16:13:35.678Z,99136.67
2018-05-24T16:16:09.379Z,99138.14
2018-05-24T16:18:43.160Z,99127.79
2018-05-24T16:21:16.880Z,99131.48
2018-05-24T16:23:50.496Z,99136.52
2018-05-24T16:26:24.151Z,99131.71
2018-05-24T16:28:57.844Z,99137.55
2018-05-24T16:31:31.328Z,99126.50
2018-05-24T16:34:05.004Z,99130.22
2018-05-24T16:36:38.551Z,99129.28
2018-05-24T16:39:12.314Z,99123.50
2018-05-24T16:41:46.089Z,99126.56
2018-05-24T16:44:19.840Z,99124.48
2018-05-24T16:46:53.488Z,99128.16
2018-05-24T16:49:27.296Z,99125.70
2018-05-24T16:52:00.772Z,99126.63
2018-05-24T16:54:34.343Z,99129.54
2018-05-24T16:57:08.001Z,99122.75
2018-05-24T16:59:41.736Z,99133.13
2018-05-24T17:02:15.600Z,99130.37
2018-05-24T17:04:49.283Z,99134.98
2018-05-24T17:07:22.895Z,99146.19
2018-05-24T17:09:56.386Z,99142.95
2018-05-24T17:12:30.051Z,99143.86
2018-05-24T17:15:03.732Z,99146.14
2018-05-24T17:17:37.381Z,99143.06
2018-05-24T17:20:11.027Z,99141.78
2018-05-24T17:22:44.747Z,99141.67
2018-05-24T17:25:18.323Z,99145.31
2018-05-24T17:27:52.040Z,99144.25
2018-05-24T17:30:25.635Z,99143.03
2018-05-24T17:32:59.565Z,99135.92
2018-05-24T17:35:33.300Z,99145.66
2018-05-24T17:38:06.854Z,99143.77
2018-05-24T17:40:40.593Z,99144.99
2018-05-24T17:43:14.399Z,99134.42
2018-05-24T17:45:48.076Z,99136.69
2018-05-24T17:48:21.555Z,99141.53
2018-05-24T17:50:55.111Z,99144.26
2018-05-24T17:53:28.776Z,99150.48
2018-05-24T17:56:02.487Z,99149.88
2018-05-24T17:58:36.224Z,99142.14
2018-05-24T18:01:09.990Z,99140.25
2018-05-24T18:03:43.503Z,99153.01
2018-05-24T18:06:17.015Z,99144.00
2018-05-24T18:08:50.697Z,99143.70
2018-05-24T18:11:24.228Z,99151.66
2018-05-24T18:13:57.801Z,99154.75
2018-05-24T18:16:31.583Z,99155.06
2018-05-24T18:19:05.268Z,99152.12
2018-05-24T18:21:39.094Z,99156.20
2018-05-24T18:24:12.764Z,99156.60
2018-05-24T18:26:46.281Z,99155.89
2018-05-24T18:29:19.821Z,99159.66
2018-05-24T18:31:53.576Z,99162.16
2018-05-24T18:34:27.084Z,99174.38
2018-05-24T18:37:00.728Z,99177.72
2018-05-24T18:39:34.248Z,99191.19
2018-05-24T18:42:07.747Z,99193.19
2018-05-24T18:44:41.324Z,99194.02
2018-05-24T18:47:14.955Z,99196.13
2018-05-24T18:49:48.761Z,99196.73
2018-05-24T18:52:22.231Z,99188.45
2018-05-24T18:54:55.785Z,99192.92
2018-05-24T18:57:29.378Z,99200.67
2018-05-24T19:00:03.024Z,99209.36
2018-05-24T19:02:36.711Z,99208.25
2018-05-24T19:05:10.460Z,99215.37
2018-05-24T19:07:44.130Z,99214.05
2018-05-24T19:10:17.714Z,99210.97
2018-05-24T19:12:51.324Z,99207.59
2018-05-24T19:15:25.172Z,99200.98
2018-05-24T19:17:58.729Z,99203.57
2018-05-24T19:20:32.511Z,99200.34
2018-05-24T19:23:06.140Z,99198.30
2018-05-24T19:25:39.926Z,99197.72
2018-05-24T19:28:13.671Z,99196.97
2018-05-24T19:30:47.400Z,99201.45
2018-05-24T19:33:21.188Z,99205.70
2018-05-24T19:35:54.961Z,99210.41
2018-05-24T19:38:28.739Z,99213.31
2018-05-24T19:41:02.427Z,99212.62
2018-05-24T19:43:36.031Z,99208.56
2018-05-24T19:46:09.837Z,99217.14
2018-05-24T19:48:43.626Z,99221.31
2018-05-24T19:51:17.179Z,99219.49
2018-05-24T19:53:51.006Z,99226.28
2018-05-24T19:56:24.588Z,99221.49
2018-05-24T19:58:58.360Z,99222.52
2018-05-24T20:01:32.036Z,99231.12
2018-05-24T20:04:05.577Z,99225.31
2018-05-24T20:06:39.372Z,99231.78
2018-05-24T20:09:13.832Z,99236.48
2018-05-24T20:11:47.603Z,99238.30
2018-05-24T20:14:21.270Z,99237.50
2018-05-24T20:16:54.815Z,99248.05
2018-05-24T20:19:28.396Z,99241.84
2018-05-24T20:22:01.904Z,99242.38
2018-05-24T20:24:35.552Z,99240.83
2018-05-24T20:27:09.149Z,99243.12
2018-05-24T20:29:42.718Z,99239.35
2018-05-24T20:32:16.315Z,99243.25
2018-05-24T20:34:49.871Z,99240.11
2018-05-24T20:37:23.564Z,99233.38
2018-05-24T20:39:57.753Z,99233.38
2018-05-24T20:42:31.290Z,99225.61
2018-05-24T20:45:04.936Z,99237.72
2018-05-24T20:47:38.465Z,99228.89
2018-05-24T20:50:12.220Z,99230.71
2018-05-24T20:52:45.743Z,99231.80
2018-05-24T20:55:19.332Z,99231.95
2018-05-24T20:57:53.143Z,99233.55
2018-05-24T21:00:26.704Z,99232.45
2018-05-24T21:03:00.310Z,99229.76
2018-05-24T21:05:33.853Z,99226.70
2018-05-24T21:08:07.487Z,99221.78
2018-05-24T21:10:41.256Z,99230.98
2018-05-24T21:13:14.944Z,99223.17
2018-05-24T21:15:48.477Z,99228.24
2018-05-24T21:18:22.305Z,99224.03
2018-05-24T21:20:55.799Z,99226.80
2018-05-24T21:23:29.495Z,99225.88
2018-05-24T21:26:03.107Z,99218.60
2018-05-24T21:28:36.668Z,99216.86
2018-05-24T21:31:10.340Z,99218.26
2018-05-24T21:33:43.924Z,99217.86
2018-05-24T21:36:17.549Z,99217.16
2018-05-24T21:38:51.174Z,99215.44
2018-05-24T21:41:24.726Z,99213.08
2018-05-24T21:43:58.459Z,99201.90
2018-05-24T21:46:32.160Z,99207.81
2018-05-24T21:49:05.812Z,99209.59
2018-05-24T21:51:39.329Z,99210.37
2018-05-24T21:54:13.036Z,99212.16
2018-05-24T21:56:46.781Z,99209.77
2018-05-24T21:59:20.340Z,99213.13
2018-05-24T22:01:53.891Z,99210.34
2018-05-24T22:04:27.428Z,99208.28
2018-05-24T22:07:01.034Z,99210.63
2018-05-24T22:09:40.587Z,99219.06
2018-05-24T22:12:14.399Z,99217.53
2018-05-24T22:14:48.024Z,99216.95
2018-05-24T22:17:21.723Z,99222.17
2018-05-24T22:19:55.332Z,99215.06
2018-05-24T22:22:29.012Z,99211.41
2018-05-24T22:25:02.652Z,99220.03
2018-05-24T22:27:36.437Z,99214.77
2018-05-24T22:30:10.101Z,99212.50
2018-05-24T22:32:43.786Z,99220.62
2018-05-24T22:35:17.416Z,99217.92
2018-05-24T22:37:51.209Z,99217.88
2018-05-24T22:40:25.112Z,99216.08
2018-05-24T22:42:58.884Z,99228.11
2018-05-24T22:45:32.435Z,99222.45
2018-05-24T22:48:06.012Z,99224.89
2018-05-24T22:50:39.602Z,99224.91
2018-05-24T22:53:13.275Z,99225.98
2018-05-24T22:55:46.786Z,99224.80
2018-05-24T22:58:20.342Z,99227.60
2018-05-24T23:00:53.891Z,99218.47
2018-05-24T23:03:27.500Z,99225.20
2018-05-24T23:06:01.257Z,99226.65
2018-05-24T23:08:35.055Z,99224.23
2018-05-24T23:11:08.687Z,99225.21
2018-05-24T23:13:42.308Z,99220.23
2018-05-24T23:16:16.006Z,99221.90
2018-05-24T23:18:49.639Z,99218.47
2018-05-24T23:21:23.179Z,99219.61
2018-05-24T23:23:56.811Z,99219.20
2018-05-24T23:26:30.522Z,99219.72
2018-05-24T23:29:04.317Z,99221.61
2018-05-24T23:31:38.070Z,99211.61
2018-05-24T23:34:11.843Z,99211.33
2018-05-24T23:36:45.480Z,99219.33
2018-05-24T23:39:19.140Z,99214.36
2018-05-24T23:41:52.809Z,99216.16
2018-05-24T23:44:26.569Z,99214.78
2018-05-24T23:47:00.273Z,99214.75
2018-05-24T23:49:33.841Z,99209.88
2018-05-24T23:52:07.448Z,99209.04
2018-05-24T23:54:41.146Z,99207.73
2018-05-24T23:57:14.774Z,99210.46
2018-05-24T23:59:48.437Z,99210.62
